ěÝzenÝ letovÚho provozu ╚eskÚ republiky
Letiste: LKLN Aktualizace: 01.12.2023 23:30:42  UTC
 SPECI LKLN 01.12. 23:33 ...
SPECI LKLN 012333Z AUTO 01003KT 300V080 1300 // BKN005 OVC021 M02/M02 Q1003=